Time;durP1;ratioP1;P1;durP2;ratioP2;P2;SDS_P1;SDS_P2;PMS_P1;PMS_P2;Temp;Humidity;BMP_temperature;BMP_pressure;BME280_temperature;BME280_humidity;BME280_pressure;Samples;Min_cycle;Max_cycle;Signal;HPM_P1;HPM_P2
2023/11/25 00:04:08;;;;;;;4.13;1.30;;;;;;;;;;10528775;27;20772;-75
2023/11/25 00:09:15;;;;;;;3.47;1.40;;;;;;;;;;10532084;27;20161;-75
2023/11/25 00:14:18;;;;;;;4.72;1.42;;;;;;;;;;10534716;28;20050;-74
2023/11/25 00:19:22;;;;;;;4.72;1.38;;;;;;;;;;10555957;27;20039;-74
2023/11/25 00:24:26;;;;;;;4.53;1.53;;;;;;;;;;10547221;27;20039;-75
2023/11/25 00:29:29;;;;;;;2.70;1.35;;;;;;;;;;10529521;27;20090;-76
2023/11/25 00:34:32;;;;;;;4.47;1.13;;;;;;;;;;10531234;27;20036;-75
2023/11/25 00:39:37;;;;;;;3.93;1.30;;;;;;;;;;10534071;27;20050;-74
2023/11/25 00:44:40;;;;;;;3.35;1.00;;;;;;;;;;10548928;28;20056;-75
2023/11/25 00:49:44;;;;;;;4.70;1.47;;;;;;;;;;10531634;27;20053;-75
2023/11/25 00:54:48;;;;;;;1.43;0.93;;;;;;;;;;10530790;28;20064;-74
2023/11/25 00:59:52;;;;;;;4.13;1.52;;;;;;;;;;10562266;27;20122;-74
2023/11/25 01:04:55;;;;;;;6.07;1.20;;;;;;;;;;10544223;27;20056;-74
2023/11/25 01:09:59;;;;;;;1.90;1.20;;;;;;;;;;10547695;28;21058;-75
2023/11/25 01:15:03;;;;;;;3.33;1.38;;;;;;;;;;10540633;28;20606;-74
2023/11/25 01:20:09;;;;;;;3.27;1.10;;;;;;;;;;10531220;28;20502;-74
2023/11/25 01:25:14;;;;;;;3.77;1.30;;;;;;;;;;10559378;28;20043;-74
2023/11/25 01:30:17;;;;;;;3.07;1.23;;;;;;;;;;10555641;28;21381;-74
2023/11/25 01:35:21;;;;;;;3.63;1.17;;;;;;;;;;10536175;28;20044;-74
2023/11/25 01:40:26;;;;;;;2.97;0.90;;;;;;;;;;10530724;28;20075;-74
2023/11/25 01:45:29;;;;;;;4.38;0.70;;;;;;;;;;10546933;28;20043;-73
2023/11/25 01:50:36;;;;;;;2.05;0.73;;;;;;;;;;10544531;27;20554;-73
2023/11/25 01:55:41;;;;;;;3.17;0.70;;;;;;;;;;10541159;27;20996;-74
2023/11/25 02:00:44;;;;;;;;;;;;;;;;;;10545931;27;20089;-73
2023/11/25 02:05:47;;;;;;;1.45;0.73;;;;;;;;;;10560985;27;19919;-73
2023/11/25 02:10:52;;;;;;;1.45;0.95;;;;;;;;;;10539274;27;20112;-74
2023/11/25 02:15:56;;;;;;;2.00;0.73;;;;;;;;;;10540550;28;20051;-74
2023/11/25 02:20:59;;;;;;;1.38;0.80;;;;;;;;;;10544564;27;20408;-74
2023/11/25 02:26:03;;;;;;;1.67;0.60;;;;;;;;;;10537110;27;20180;-74
2023/11/25 02:31:07;;;;;;;1.25;0.65;;;;;;;;;;10560566;27;20035;-74
2023/11/25 02:36:11;;;;;;;0.47;0.47;;;;;;;;;;10557395;27;20043;-74
2023/11/25 02:41:16;;;;;;;3.63;0.90;;;;;;;;;;10523609;27;20047;-75
2023/11/25 02:46:20;;;;;;;2.20;0.80;;;;;;;;;;10552846;27;21823;-75
2023/11/25 02:51:24;;;;;;;1.70;0.70;;;;;;;;;;10539095;27;20040;-74
2023/11/25 02:56:27;;;;;;;;;;;;;;;;;;10537335;27;20059;-75
2023/11/25 03:01:32;;;;;;;0.60;0.40;;;;;;;;;;10548096;27;19938;-74
2023/11/25 03:06:37;;;;;;;1.77;0.67;;;;;;;;;;10536920;27;20038;-74
2023/11/25 03:11:40;;;;;;;2.40;0.60;;;;;;;;;;10539201;27;20520;-74
2023/11/25 03:16:44;;;;;;;1.30;0.52;;;;;;;;;;10570440;27;20085;-75
2023/11/25 03:21:48;;;;;;;1.27;0.37;;;;;;;;;;10550443;27;20051;-77
2023/11/25 03:26:51;;;;;;;1.27;0.43;;;;;;;;;;10556087;27;20197;-75
2023/11/25 03:31:55;;;;;;;0.20;0.20;;;;;;;;;;10554170;27;20184;-74
2023/11/25 03:36:58;;;;;;;1.67;0.43;;;;;;;;;;10557848;27;20040;-74
2023/11/25 03:42:02;;;;;;;1.83;0.50;;;;;;;;;;10557601;27;20043;-75
2023/11/25 03:47:10;;;;;;;2.10;0.73;;;;;;;;;;10538963;27;20134;-74
2023/11/25 03:52:13;;;;;;;0.63;0.50;;;;;;;;;;10557128;27;20079;-73
2023/11/25 03:57:16;;;;;;;2.13;0.50;;;;;;;;;;10532470;28;20464;-74
2023/11/25 04:02:20;;;;;;;0.67;0.60;;;;;;;;;;10527938;27;20481;-75
2023/11/25 04:07:24;;;;;;;5.10;0.70;;;;;;;;;;10556579;27;20460;-74
2023/11/25 04:12:29;;;;;;;0.60;0.40;;;;;;;;;;10532769;27;20191;-75
2023/11/25 04:17:34;;;;;;;1.63;0.80;;;;;;;;;;10570749;27;20402;-75
2023/11/25 04:22:37;;;;;;;1.83;0.73;;;;;;;;;;10549366;27;20144;-74
2023/11/25 04:27:41;;;;;;;1.27;0.75;;;;;;;;;;10519206;27;20556;-73
2023/11/25 04:32:46;;;;;;;0.83;0.60;;;;;;;;;;10532071;27;20502;-74
2023/11/25 04:37:49;;;;;;;1.30;0.70;;;;;;;;;;10532653;28;20039;-74
2023/11/25 04:42:52;;;;;;;0.63;0.50;;;;;;;;;;10531740;27;20420;-74
2023/11/25 04:47:59;;;;;;;1.67;0.80;;;;;;;;;;10537469;27;20042;-73
2023/11/25 04:53:03;;;;;;;3.07;0.90;;;;;;;;;;10546976;28;20106;-74
2023/11/25 04:58:05;;;;;;;0.90;0.60;;;;;;;;;;10530005;27;20068;-74
2023/11/25 05:03:10;;;;;;;2.10;0.50;;;;;;;;;;10533690;28;20059;-74
2023/11/25 05:08:12;;;;;;;;;;;;;;;;;;10533367;28;20057;-74
2023/11/25 05:13:16;;;;;;;1.03;0.40;;;;;;;;;;10552230;28;20018;-74
2023/11/25 05:18:21;;;;;;;1.02;0.60;;;;;;;;;;10534125;28;20067;-74
2023/11/25 05:23:25;;;;;;;2.20;0.77;;;;;;;;;;10533511;27;20516;-76
2023/11/25 05:28:29;;;;;;;0.70;0.68;;;;;;;;;;10539386;27;20465;-75
2023/11/25 05:33:33;;;;;;;;;;;;;;;;;;10572184;27;20039;-75
2023/11/25 05:38:38;;;;;;;1.10;0.53;;;;;;;;;;10556434;27;20369;-75
2023/11/25 05:43:41;;;;;;;2.27;0.70;;;;;;;;;;10558592;27;20480;-75
2023/11/25 05:48:44;;;;;;;1.58;0.60;;;;;;;;;;10560454;27;20442;-75
2023/11/25 05:53:48;;;;;;;3.90;0.83;;;;;;;;;;10540438;27;20067;-75
2023/11/25 05:58:51;;;;;;;2.53;0.90;;;;;;;;;;10544864;27;20648;-74
2023/11/25 06:03:54;;;;;;;0.73;0.60;;;;;;;;;;10571859;27;20581;-75
2023/11/25 06:08:58;;;;;;;2.87;0.50;;;;;;;;;;10542280;27;20388;-75
2023/11/25 06:14:01;;;;;;;2.83;0.70;;;;;;;;;;10560780;27;20200;-73
2023/11/25 06:19:04;;;;;;;2.97;0.70;;;;;;;;;;10556204;27;20482;-75
2023/11/25 06:24:10;;;;;;;2.83;0.65;;;;;;;;;;10538804;27;20397;-75
2023/11/25 06:29:12;;;;;;;2.70;0.80;;;;;;;;;;10537163;27;20127;-75
2023/11/25 06:34:15;;;;;;;2.87;0.77;;;;;;;;;;10539101;27;20409;-74
2023/11/25 06:39:22;;;;;;;1.27;0.60;;;;;;;;;;10570894;27;20424;-74
2023/11/25 06:44:25;;;;;;;0.63;0.53;;;;;;;;;;10552148;27;20882;-73
2023/11/25 06:49:29;;;;;;;2.57;1.10;;;;;;;;;;10556823;27;20039;-75
2023/11/25 06:54:34;;;;;;;1.75;0.80;;;;;;;;;;10534798;27;20075;-74
2023/11/25 06:59:40;;;;;;;2.37;0.63;;;;;;;;;;10550727;27;20139;-73
2023/11/25 07:04:43;;;;;;;2.33;0.60;;;;;;;;;;10538071;27;20458;-74
2023/11/25 07:09:48;;;;;;;1.67;0.63;;;;;;;;;;10539946;27;20442;-74
2023/11/25 07:14:51;;;;;;;3.43;0.90;;;;;;;;;;10556604;27;20073;-74
2023/11/25 07:19:54;;;;;;;2.10;0.90;;;;;;;;;;10535093;27;20393;-74
2023/11/25 07:24:58;;;;;;;1.50;0.33;;;;;;;;;;10534247;27;20060;-74
2023/11/25 07:30:02;;;;;;;3.30;1.17;;;;;;;;;;10547467;27;20027;-74
2023/11/25 07:35:07;;;;;;;0.40;0.40;;;;;;;;;;10556312;27;20036;-75
2023/11/25 07:40:14;;;;;;;3.40;0.50;;;;;;;;;;10536454;27;21734;-74
2023/11/25 07:45:18;;;;;;;2.60;0.85;;;;;;;;;;10548952;27;20517;-75
2023/11/25 07:50:22;;;;;;;2.15;0.88;;;;;;;;;;10527433;27;20140;-75
2023/11/25 07:55:25;;;;;;;;;;;;;;;;;;10534027;27;20100;-75
2023/11/25 08:00:29;;;;;;;4.10;0.65;;;;;;;;;;10550240;27;19926;-74
2023/11/25 08:05:34;;;;;;;;;;;;;;;;;;10546398;27;20044;-75
2023/11/25 08:10:37;;;;;;;;;;;;;;;;;;10558088;27;20005;-76
2023/11/25 08:15:41;;;;;;;3.92;1.00;;;;;;;;;;10544692;27;19923;-75
2023/11/25 08:20:46;;;;;;;1.77;0.68;;;;;;;;;;10526397;28;20171;-75
2023/11/25 08:25:49;;;;;;;2.17;0.82;;;;;;;;;;10527076;27;20044;-75
2023/11/25 08:30:54;;;;;;;0.98;0.60;;;;;;;;;;10524518;28;20122;-75
2023/11/25 08:35:58;;;;;;;4.60;1.02;;;;;;;;;;10532116;28;20048;-74
2023/11/25 08:41:07;;;;;;;3.13;0.70;;;;;;;;;;10545019;27;20126;-74
2023/11/25 08:46:13;;;;;;;4.93;1.00;;;;;;;;;;10542320;27;20044;-75
2023/11/25 08:51:15;;;;;;;2.42;0.70;;;;;;;;;;10523744;28;20044;-74
2023/11/25 08:56:19;;;;;;;6.20;0.82;;;;;;;;;;10527341;28;20047;-74
2023/11/25 09:01:26;;;;;;;3.72;1.08;;;;;;;;;;10533285;27;20438;-74
2023/11/25 09:06:31;;;;;;;4.28;1.30;;;;;;;;;;10526043;28;20058;-75
2023/11/25 09:11:35;;;;;;;2.42;0.90;;;;;;;;;;10562330;27;20070;-75
2023/11/25 09:16:39;;;;;;;5.17;1.33;;;;;;;;;;10524777;28;20059;-73
2023/11/25 09:21:44;;;;;;;2.70;1.00;;;;;;;;;;10546864;28;20044;-74
2023/11/25 09:26:51;;;;;;;1.27;0.85;;;;;;;;;;10528332;28;20070;-74
2023/11/25 09:31:55;;;;;;;2.72;1.17;;;;;;;;;;10546799;28;20217;-74
2023/11/25 09:37:02;;;;;;;3.47;1.35;;;;;;;;;;10548463;28;20506;-74
2023/11/25 09:42:05;;;;;;;3.78;1.48;;;;;;;;;;10528559;28;20051;-73
2023/11/25 09:47:10;;;;;;;1.85;1.02;;;;;;;;;;10546997;28;20055;-75
2023/11/25 09:52:16;;;;;;;6.68;1.58;;;;;;;;;;10533036;28;20043;-75
2023/11/25 09:57:20;;;;;;;0.80;0.47;;;;;;;;;;10516428;28;20032;-75
2023/11/25 10:02:25;;;;;;;2.25;1.17;;;;;;;;;;10532824;28;20036;-75
2023/11/25 10:07:28;;;;;;;3.88;1.02;;;;;;;;;;10548178;28;20437;-73
2023/11/25 10:12:31;;;;;;;4.57;1.93;;;;;;;;;;10539989;27;20626;-74
2023/11/25 10:17:36;;;;;;;6.57;1.27;;;;;;;;;;10545640;27;20505;-74
2023/11/25 10:22:46;;;;;;;4.68;1.40;;;;;;;;;;10560029;27;20551;-74
2023/11/25 10:27:51;;;;;;;3.55;0.80;;;;;;;;;;10534431;27;20179;-73
2023/11/25 10:32:56;;;;;;;2.97;1.27;;;;;;;;;;10558316;28;20039;-74
2023/11/25 10:38:05;;;;;;;2.15;1.02;;;;;;;;;;10559043;27;21091;-74
2023/11/25 10:43:09;;;;;;;0.68;0.57;;;;;;;;;;10537293;27;20435;-74
2023/11/25 10:48:13;;;;;;;1.70;1.05;;;;;;;;;;10554443;28;20497;-74
2023/11/25 10:53:18;;;;;;;2.97;0.85;;;;;;;;;;10563017;27;20177;-75
2023/11/25 10:58:21;;;;;;;3.33;1.25;;;;;;;;;;10533392;27;20047;-75
2023/11/25 11:03:33;;;;;;;2.08;1.05;;;;;;;;;;10537063;27;20169;-74
2023/11/25 11:08:37;;;;;;;5.53;1.20;;;;;;;;;;10550377;27;20108;-73
2023/11/25 11:13:43;;;;;;;3.33;1.42;;;;;;;;;;10551937;27;20042;-74
2023/11/25 11:18:50;;;;;;;3.25;1.23;;;;;;;;;;10554340;27;20075;-74
2023/11/25 11:23:53;;;;;;;5.35;1.48;;;;;;;;;;10554452;27;20120;-75
2023/11/25 11:29:03;;;;;;;1.10;0.97;;;;;;;;;;10532101;27;20051;-74
2023/11/25 11:34:08;;;;;;;4.38;1.70;;;;;;;;;;10549864;27;20047;-75
2023/11/25 11:39:13;;;;;;;;;;;;;;;;;;10535012;28;20049;-75
2023/11/25 11:44:17;;;;;;;;;;;;;;;;;;10551892;27;20316;-75
2023/11/25 11:49:24;;;;;;;2.55;0.85;;;;;;;;;;10551094;27;20258;-75
2023/11/25 11:54:28;;;;;;;4.32;1.27;;;;;;;;;;10529419;27;20043;-76
2023/11/25 11:59:50;;;;;;;3.25;0.88;;;;;;;;;;10546158;27;20040;-74
2023/11/25 12:04:55;;;;;;;5.07;1.30;;;;;;;;;;10524736;27;20097;-76
2023/11/25 12:09:59;;;;;;;5.43;1.50;;;;;;;;;;10559264;27;20436;-74
2023/11/25 12:15:02;;;;;;;9.55;1.50;;;;;;;;;;10546056;27;20123;-74
2023/11/25 12:20:09;;;;;;;3.42;1.15;;;;;;;;;;10562904;27;20089;-74
2023/11/25 12:25:16;;;;;;;2.70;1.20;;;;;;;;;;10531199;27;20104;-76
2023/11/25 12:30:19;;;;;;;3.53;1.15;;;;;;;;;;10550458;27;20518;-76
2023/11/25 12:35:24;;;;;;;5.15;1.20;;;;;;;;;;10548189;27;20047;-75
2023/11/25 12:40:27;;;;;;;2.78;1.38;;;;;;;;;;10545762;27;20047;-75
2023/11/25 12:45:35;;;;;;;1.80;0.88;;;;;;;;;;10545565;27;20062;-75
2023/11/25 12:50:53;;;;;;;2.42;1.20;;;;;;;;;;10547793;27;20361;-75
2023/11/25 12:55:58;;;;;;;4.97;1.20;;;;;;;;;;10544890;27;20046;-75
2023/11/25 13:01:02;;;;;;;4.15;1.20;;;;;;;;;;10544718;27;20088;-75
2023/11/25 13:06:06;;;;;;;2.72;1.27;;;;;;;;;;10547272;27;20047;-75
2023/11/25 13:11:10;;;;;;;4.70;1.30;;;;;;;;;;10547180;27;20040;-75
2023/11/25 13:16:13;;;;;;;;;;;;;;;;;;10550099;28;20047;-74
2023/11/25 13:21:18;;;;;;;1.33;0.95;;;;;;;;;;10551242;28;20146;-75
2023/11/25 13:26:24;;;;;;;2.15;0.90;;;;;;;;;;10528658;28;20436;-75
2023/11/25 13:31:27;;;;;;;4.28;0.88;;;;;;;;;;10545476;28;20568;-74
2023/11/25 13:36:30;;;;;;;1.75;0.93;;;;;;;;;;10532134;28;20048;-75
2023/11/25 13:41:35;;;;;;;3.20;1.07;;;;;;;;;;10508984;28;20109;-75
2023/11/25 13:46:37;;;;;;;2.60;1.15;;;;;;;;;;10555206;27;20362;-75
2023/11/25 13:51:42;;;;;;;2.90;1.20;;;;;;;;;;10535737;27;20051;-75
2023/11/25 13:56:45;;;;;;;;;;;;;;;;;;10555329;27;20046;-74
2023/11/25 14:01:50;;;;;;;1.88;0.88;;;;;;;;;;10539825;27;19924;-75
2023/11/25 14:06:54;;;;;;;5.13;1.27;;;;;;;;;;10533621;27;20063;-75
2023/11/25 14:11:59;;;;;;;5.18;1.52;;;;;;;;;;10533705;27;20413;-75
2023/11/25 14:17:05;;;;;;;2.75;1.20;;;;;;;;;;10558142;27;20666;-75
2023/11/25 14:22:09;;;;;;;3.17;0.77;;;;;;;;;;10551058;27;20040;-75
2023/11/25 14:27:13;;;;;;;4.30;1.67;;;;;;;;;;10531519;27;20040;-73
2023/11/25 14:32:17;;;;;;;4.70;1.60;;;;;;;;;;10552190;27;20042;-74
2023/11/25 14:37:21;;;;;;;6.27;1.17;;;;;;;;;;10539734;28;20405;-74
2023/11/25 14:42:24;;;;;;;2.33;1.20;;;;;;;;;;10552722;27;20528;-76
2023/11/25 14:47:28;;;;;;;3.47;1.60;;;;;;;;;;10556652;27;20051;-73
2023/11/25 14:52:31;;;;;;;;;;;;;;;;;;10554066;27;20479;-73
2023/11/25 14:57:37;;;;;;;3.57;1.20;;;;;;;;;;10547887;27;19935;-74
2023/11/25 15:02:42;;;;;;;6.65;1.67;;;;;;;;;;10531368;27;20723;-74
2023/11/25 15:07:45;;;;;;;1.30;0.90;;;;;;;;;;10529172;27;20588;-78
2023/11/25 15:12:50;;;;;;;5.23;1.93;;;;;;;;;;10517260;28;20054;-74
2023/11/25 15:17:53;;;;;;;;;;;;;;;;;;10536405;27;20108;-73
2023/11/25 15:22:59;;;;;;;2.87;1.10;;;;;;;;;;10552622;27;19974;-74
2023/11/25 15:28:05;;;;;;;7.13;1.50;;;;;;;;;;10551222;27;20511;-73
2023/11/25 15:33:08;;;;;;;3.80;1.48;;;;;;;;;;10516215;27;20401;-73
2023/11/25 15:38:13;;;;;;;2.65;0.95;;;;;;;;;;10550931;27;20673;-73
2023/11/25 15:43:16;;;;;;;4.63;1.70;;;;;;;;;;10550840;27;20688;-74
2023/11/25 15:48:19;;;;;;;6.30;1.40;;;;;;;;;;10555707;27;20131;-74
2023/11/25 15:53:24;;;;;;;3.13;1.07;;;;;;;;;;10528985;27;20062;-74
2023/11/25 15:58:29;;;;;;;4.00;1.57;;;;;;;;;;10531147;27;20041;-74
2023/11/25 16:03:31;;;;;;;5.60;1.50;;;;;;;;;;10552194;27;20067;-74
2023/11/25 16:08:36;;;;;;;3.77;1.63;;;;;;;;;;10536879;28;20059;-73
2023/11/25 16:13:39;;;;;;;4.27;1.40;;;;;;;;;;10534856;27;20149;-74
2023/11/25 16:18:42;;;;;;;3.07;1.50;;;;;;;;;;10567169;27;20043;-74
2023/11/25 16:23:47;;;;;;;4.83;2.30;;;;;;;;;;10531347;27;20097;-74
2023/11/25 16:28:50;;;;;;;5.47;1.90;;;;;;;;;;10553021;27;20047;-73
2023/11/25 16:33:53;;;;;;;4.90;1.63;;;;;;;;;;10532869;27;20112;-73
2023/11/25 16:38:57;;;;;;;3.60;1.70;;;;;;;;;;10551182;27;20123;-73
2023/11/25 16:44:02;;;;;;;4.70;1.63;;;;;;;;;;10532320;27;20041;-75
2023/11/25 16:49:06;;;;;;;5.20;1.87;;;;;;;;;;10517666;27;20059;-75
2023/11/25 16:54:14;;;;;;;4.90;1.67;;;;;;;;;;10529102;27;20386;-75
2023/11/25 16:59:18;;;;;;;3.27;1.20;;;;;;;;;;10529848;28;20132;-75
2023/11/25 17:04:21;;;;;;;5.17;1.67;;;;;;;;;;10529933;27;20039;-75
2023/11/25 17:09:27;;;;;;;3.70;1.35;;;;;;;;;;10572474;27;20086;-73
2023/11/25 17:14:30;;;;;;;6.03;2.07;;;;;;;;;;10548565;28;20035;-73
2023/11/25 17:19:33;;;;;;;5.77;2.47;;;;;;;;;;10531957;28;20039;-75
2023/11/25 17:24:38;;;;;;;3.53;1.70;;;;;;;;;;10529342;28;20380;-75
2023/11/25 17:29:41;;;;;;;4.40;1.80;;;;;;;;;;10550009;28;20071;-75
2023/11/25 17:34:45;;;;;;;;;;;;;;;;;;10533729;28;20043;-75
2023/11/25 17:39:49;;;;;;;7.70;1.83;;;;;;;;;;10546153;28;19920;-74
2023/11/25 17:44:52;;;;;;;3.47;1.50;;;;;;;;;;10546301;28;20123;-75
2023/11/25 17:49:55;;;;;;;6.33;2.07;;;;;;;;;;10529555;28;20390;-74
2023/11/25 17:55:00;;;;;;;6.33;2.53;;;;;;;;;;10530601;28;20047;-75
2023/11/25 18:00:04;;;;;;;2.93;1.83;;;;;;;;;;10531310;28;20131;-75
2023/11/25 18:05:09;;;;;;;4.40;2.05;;;;;;;;;;10530407;28;20036;-75
2023/11/25 18:10:15;;;;;;;2.17;1.17;;;;;;;;;;10549921;28;20051;-74
2023/11/25 18:15:17;;;;;;;;;;;;;;;;;;10532651;28;20093;-75
2023/11/25 18:20:21;;;;;;;8.17;1.70;;;;;;;;;;10548477;28;19935;-75
2023/11/25 18:25:25;;;;;;;5.33;1.87;;;;;;;;;;10519864;28;20075;-74
2023/11/25 18:30:28;;;;;;;4.07;1.63;;;;;;;;;;10533918;28;20043;-74
2023/11/25 18:35:31;;;;;;;4.30;1.50;;;;;;;;;;10533556;28;20149;-74
2023/11/25 18:40:35;;;;;;;2.17;1.07;;;;;;;;;;10523409;27;20135;-75
2023/11/25 18:45:42;;;;;;;2.42;1.45;;;;;;;;;;10536050;28;20433;-75
2023/11/25 18:50:45;;;;;;;3.25;1.77;;;;;;;;;;10536668;27;20506;-75
2023/11/25 18:55:50;;;;;;;4.67;1.90;;;;;;;;;;10539588;27;20040;-74
2023/11/25 19:00:53;;;;;;;4.40;1.73;;;;;;;;;;10539772;28;20036;-74
2023/11/25 19:05:56;;;;;;;6.33;2.10;;;;;;;;;;10553792;27;20174;-74
2023/11/25 19:11:01;;;;;;;8.53;2.30;;;;;;;;;;10541208;27;20370;-75
2023/11/25 19:16:07;;;;;;;7.20;2.40;;;;;;;;;;10554514;27;20048;-75
2023/11/25 19:21:14;;;;;;;6.57;1.90;;;;;;;;;;10529837;27;20199;-74
2023/11/25 19:26:18;;;;;;;4.67;1.67;;;;;;;;;;10521758;27;20058;-75
2023/11/25 19:31:23;;;;;;;3.43;1.90;;;;;;;;;;10558243;27;20071;-75
2023/11/25 19:36:26;;;;;;;3.30;1.57;;;;;;;;;;10556056;28;20054;-74
2023/11/25 19:41:31;;;;;;;3.00;1.50;;;;;;;;;;10547365;27;20055;-74
2023/11/25 19:46:35;;;;;;;12.03;2.87;;;;;;;;;;10571406;27;20527;-74
2023/11/25 19:51:38;;;;;;;2.97;1.90;;;;;;;;;;10552047;27;20404;-75
2023/11/25 19:56:43;;;;;;;5.87;2.47;;;;;;;;;;10531786;27;20059;-76
2023/11/25 20:01:47;;;;;;;3.07;1.73;;;;;;;;;;10516469;27;20063;-74
2023/11/25 20:06:52;;;;;;;5.70;2.77;;;;;;;;;;10552913;27;20048;-74
2023/11/25 20:11:58;;;;;;;3.90;2.27;;;;;;;;;;10555111;27;20040;-74
2023/11/25 20:17:00;;;;;;;3.58;2.17;;;;;;;;;;10532537;27;20144;-75
2023/11/25 20:22:06;;;;;;;4.38;1.92;;;;;;;;;;10533567;27;20501;-75
2023/11/25 20:27:12;;;;;;;4.00;2.00;;;;;;;;;;10552461;28;20043;-76
2023/11/25 20:32:19;;;;;;;4.50;2.10;;;;;;;;;;10552523;27;20047;-75
2023/11/25 20:37:22;;;;;;;2.17;1.60;;;;;;;;;;10563797;27;20495;-75
2023/11/25 20:42:28;;;;;;;3.85;1.92;;;;;;;;;;10550982;27;20051;-75
2023/11/25 20:47:31;;;;;;;4.47;1.97;;;;;;;;;;10551606;27;20101;-75
2023/11/25 20:52:34;;;;;;;3.97;1.50;;;;;;;;;;10535859;27;20051;-75
2023/11/25 20:57:40;;;;;;;3.47;2.00;;;;;;;;;;10535385;27;20105;-76
2023/11/25 21:02:43;;;;;;;4.33;2.37;;;;;;;;;;10567120;27;20541;-75
2023/11/25 21:07:46;;;;;;;2.13;1.53;;;;;;;;;;10532309;28;20081;-76
2023/11/25 21:12:52;;;;;;;2.83;1.93;;;;;;;;;;10537272;28;20039;-77
2023/11/25 21:17:57;;;;;;;4.03;1.83;;;;;;;;;;10539503;28;20904;-76
2023/11/25 21:23:00;;;;;;;1.30;0.93;;;;;;;;;;10531004;28;20040;-76
2023/11/25 21:28:05;;;;;;;4.38;2.00;;;;;;;;;;10536937;28;20063;-75
2023/11/25 21:33:09;;;;;;;3.47;1.60;;;;;;;;;;10570928;27;20056;-76
2023/11/25 21:38:12;;;;;;;1.83;1.30;;;;;;;;;;10536575;28;20077;-75
2023/11/25 21:43:17;;;;;;;3.53;2.27;;;;;;;;;;10568097;27;20035;-75
2023/11/25 21:48:20;;;;;;;2.58;1.38;;;;;;;;;;10554887;28;20046;-75
2023/11/25 21:53:23;;;;;;;2.28;1.23;;;;;;;;;;10571758;27;20135;-76
2023/11/25 21:58:28;;;;;;;4.57;1.80;;;;;;;;;;10573452;27;20051;-75
2023/11/25 22:03:33;;;;;;;;;;;;;;;;;;10562442;28;20044;-73
2023/11/25 22:08:36;;;;;;;3.20;1.35;;;;;;;;;;10565604;27;19923;-76
2023/11/25 22:13:41;;;;;;;2.17;1.42;;;;;;;;;;10566898;27;20089;-77
2023/11/25 22:18:43;;;;;;;2.90;1.20;;;;;;;;;;10545873;27;20039;-74
2023/11/25 22:23:48;;;;;;;5.15;1.50;;;;;;;;;;10543675;27;20104;-76
2023/11/25 22:28:52;;;;;;;2.65;1.40;;;;;;;;;;10561367;27;20075;-76
2023/11/25 22:33:55;;;;;;;;;;;;;;;;;;10562072;27;20055;-77
2023/11/25 22:38:58;;;;;;;3.93;2.10;;;;;;;;;;10547997;27;19926;-75
2023/11/25 22:44:03;;;;;;;4.22;2.45;;;;;;;;;;10547587;27;20063;-77
2023/11/25 22:49:07;;;;;;;2.40;1.40;;;;;;;;;;10542547;28;20061;-75
2023/11/25 22:54:11;;;;;;;3.30;2.08;;;;;;;;;;10570773;27;20597;-77
2023/11/25 22:59:17;;;;;;;4.07;1.92;;;;;;;;;;10572893;27;20046;-78
2023/11/25 23:04:20;;;;;;;3.08;1.17;;;;;;;;;;10563116;27;20548;-77
2023/11/25 23:09:23;;;;;;;1.47;1.30;;;;;;;;;;10559656;27;20050;-77
2023/11/25 23:14:28;;;;;;;2.73;1.63;;;;;;;;;;10564833;27;20492;-76
2023/11/25 23:19:31;;;;;;;2.20;1.20;;;;;;;;;;10564619;27;20083;-75
2023/11/25 23:24:34;;;;;;;3.83;1.80;;;;;;;;;;10564852;27;20055;-75
2023/11/25 23:29:39;;;;;;;3.13;1.70;;;;;;;;;;10540126;27;20485;-76
2023/11/25 23:34:42;;;;;;;3.33;1.70;;;;;;;;;;10562832;27;20032;-76
2023/11/25 23:39:45;;;;;;;3.30;1.70;;;;;;;;;;10557919;27;20059;-76
2023/11/25 23:44:50;;;;;;;2.03;1.33;;;;;;;;;;10530125;28;20036;-76
2023/11/25 23:49:53;;;;;;;1.92;1.33;;;;;;;;;;10553473;27;20055;-76
2023/11/25 23:54:56;;;;;;;3.03;1.60;;;;;;;;;;10536845;27;20039;-76
